createdAt,value
2018-01-10T00:02:14.851Z,32.30
2018-01-10T00:04:43.162Z,21.30
2018-01-10T00:07:11.425Z,27.77
2018-01-10T00:09:41.010Z,26.00
2018-01-10T00:12:09.289Z,21.80
2018-01-10T00:14:38.421Z,23.07
2018-01-10T00:17:06.675Z,23.30
2018-01-10T00:19:35.682Z,19.83
2018-01-10T00:22:04.770Z,18.80
2018-01-10T00:24:33.126Z,22.57
2018-01-10T00:27:03.605Z,23.00
2018-01-10T00:29:33.706Z,19.67
2018-01-10T00:32:03.234Z,26.40
2018-01-10T00:34:31.590Z,18.67
2018-01-10T00:36:59.879Z,22.07
2018-01-10T00:39:28.139Z,26.83
2018-01-10T00:41:57.209Z,27.33
2018-01-10T00:44:27.359Z,32.03
2018-01-10T00:46:57.574Z,19.90
2018-01-10T00:49:27.348Z,21.27
2018-01-10T00:51:56.483Z,28.07
2018-01-10T00:54:25.457Z,24.80
2018-01-10T00:56:55.022Z,22.00
2018-01-10T00:59:24.298Z,29.97
2018-01-10T01:02:05.560Z,23.60
2018-01-10T01:04:34.702Z,28.40
2018-01-10T01:07:04.409Z,16.47
2018-01-10T01:09:35.451Z,22.13
2018-01-10T01:12:04.542Z,21.37
2018-01-10T01:14:32.981Z,23.93
2018-01-10T01:17:02.743Z,25.00
2018-01-10T01:19:31.049Z,22.63
2018-01-10T01:21:59.450Z,19.13
2018-01-10T01:24:27.771Z,21.33
2018-01-10T01:26:56.906Z,20.30
2018-01-10T01:29:25.343Z,20.10
2018-01-10T01:31:53.703Z,25.27
2018-01-10T01:34:21.979Z,20.30
2018-01-10T01:36:51.133Z,26.93
2018-01-10T01:39:19.501Z,24.33
2018-01-10T01:41:47.864Z,28.60
2018-01-10T01:44:16.909Z,20.50
2018-01-10T01:46:45.260Z,23.13
2018-01-10T01:49:13.593Z,20.60
2018-01-10T01:51:42.011Z,24.13
2018-01-10T01:54:10.488Z,22.43
2018-01-10T01:56:38.858Z,16.63
2018-01-10T01:59:08.013Z,22.43
2018-01-10T02:01:36.385Z,21.33
2018-01-10T02:04:04.869Z,25.57
2018-01-10T02:06:33.297Z,26.30
2018-01-10T02:09:01.704Z,27.30
2018-01-10T02:11:30.111Z,29.10
2018-01-10T02:13:58.459Z,22.73
2018-01-10T02:16:27.793Z,19.70
2018-01-10T02:18:56.121Z,21.30
2018-01-10T02:21:24.667Z,23.97
2018-01-10T02:23:53.190Z,22.80
2018-01-10T02:26:22.381Z,23.97
2018-01-10T02:28:50.873Z,23.00
2018-01-10T02:31:19.333Z,16.90
2018-01-10T02:33:47.828Z,24.03
2018-01-10T02:36:16.989Z,25.93
2018-01-10T02:38:45.393Z,28.53
2018-01-10T02:41:13.876Z,31.70
2018-01-10T02:43:42.292Z,30.53
2018-01-10T02:46:10.553Z,24.43
2018-01-10T02:48:39.792Z,23.30
2018-01-10T02:51:08.102Z,31.03
2018-01-10T02:53:37.230Z,24.30
2018-01-10T02:56:05.804Z,27.80
2018-01-10T02:58:34.995Z,23.00
2018-01-10T03:01:04.875Z,23.03
2018-01-10T03:03:34.126Z,26.83
2018-01-10T03:06:03.210Z,24.90
2018-01-10T03:08:32.524Z,20.97
2018-01-10T03:11:01.630Z,19.93
2018-01-10T03:13:30.976Z,21.03
2018-01-10T03:16:00.165Z,19.47
2018-01-10T03:18:28.594Z,22.07
2018-01-10T03:20:56.991Z,28.27
2018-01-10T03:23:26.140Z,21.50
2018-01-10T03:25:54.453Z,28.50
2018-01-10T03:28:23.574Z,27.50
2018-01-10T03:30:51.888Z,31.40
2018-01-10T03:33:20.273Z,38.57
2018-01-10T03:35:48.753Z,31.77
2018-01-10T03:38:17.086Z,34.87
2018-01-10T03:40:45.403Z,27.10
2018-01-10T03:43:13.790Z,27.90
2018-01-10T03:45:42.271Z,21.37
2018-01-10T03:48:13.138Z,23.10
2018-01-10T03:50:42.513Z,19.70
2018-01-10T03:53:11.634Z,25.90
2018-01-10T03:55:40.612Z,22.30
2018-01-10T03:58:10.030Z,24.93
2018-01-10T04:00:38.426Z,24.67
2018-01-10T04:03:06.832Z,21.93
2018-01-10T04:05:35.463Z,19.10
2018-01-10T04:08:05.351Z,20.63
2018-01-10T04:10:33.712Z,18.43
2018-01-10T04:13:02.501Z,17.10
2018-01-10T04:15:33.298Z,19.93
2018-01-10T04:18:02.373Z,19.80
2018-01-10T04:20:30.685Z,25.40
2018-01-10T04:22:59.760Z,26.50
2018-01-10T04:25:28.162Z,20.97
2018-01-10T04:27:57.302Z,21.93
2018-01-10T04:30:25.634Z,22.30
2018-01-10T04:32:54.003Z,25.27
2018-01-10T04:35:22.358Z,19.80
2018-01-10T04:37:50.727Z,20.23
2018-01-10T04:40:19.183Z,24.67
2018-01-10T04:42:49.310Z,22.23
2018-01-10T04:45:17.770Z,22.93
2018-01-10T04:47:46.851Z,24.63
2018-01-10T04:50:15.714Z,25.57
2018-01-10T04:52:44.139Z,29.10
2018-01-10T04:55:12.437Z,24.10
2018-01-10T04:57:41.634Z,17.20
2018-01-10T05:00:10.103Z,27.10
2018-01-10T05:02:39.300Z,20.57
2018-01-10T05:05:07.658Z,20.23
2018-01-10T05:07:35.903Z,24.60
2018-01-10T05:10:04.255Z,19.03
2018-01-10T05:12:32.568Z,17.40
2018-01-10T05:15:00.987Z,19.20
2018-01-10T05:17:29.354Z,17.97
2018-01-10T05:19:57.764Z,22.37
2018-01-10T05:22:26.861Z,22.40
2018-01-10T05:24:55.896Z,22.97
2018-01-10T05:27:24.697Z,30.43
2018-01-10T05:29:54.819Z,21.20
2018-01-10T05:32:23.163Z,25.63
2018-01-10T05:34:51.647Z,25.93
2018-01-10T05:37:19.936Z,24.43
2018-01-10T05:39:48.229Z,17.50
2018-01-10T05:42:16.488Z,19.70
2018-01-10T05:44:46.899Z,18.50
2018-01-10T05:47:16.754Z,21.50
2018-01-10T05:49:45.161Z,20.33
2018-01-10T05:52:14.224Z,23.47
2018-01-10T05:54:43.424Z,19.70
2018-01-10T05:57:11.955Z,18.17
2018-01-10T05:59:41.113Z,19.10
2018-01-10T06:02:09.784Z,22.23
2018-01-10T06:04:38.177Z,25.63
2018-01-10T06:07:06.712Z,23.87
2018-01-10T06:09:35.017Z,22.13
2018-01-10T06:12:03.348Z,22.10
2018-01-10T06:14:33.820Z,22.10
2018-01-10T06:17:02.692Z,19.63
2018-01-10T06:19:30.988Z,21.40
2018-01-10T06:21:59.646Z,20.57
2018-01-10T06:24:27.935Z,23.70
2018-01-10T06:26:56.273Z,22.10
2018-01-10T06:29:24.552Z,24.33
2018-01-10T06:31:53.655Z,17.50
2018-01-10T06:34:21.953Z,23.80
2018-01-10T06:36:51.329Z,26.20
2018-01-10T06:39:20.520Z,21.90
2018-01-10T06:41:48.944Z,28.30
2018-01-10T06:44:17.312Z,30.73
2018-01-10T06:46:45.662Z,20.57
2018-01-10T06:49:14.004Z,21.23
2018-01-10T06:51:42.376Z,18.30
2018-01-10T06:54:20.808Z,12.77
2018-01-10T06:56:49.164Z,14.97
2018-01-10T06:59:17.577Z,14.40
2018-01-10T07:01:46.180Z,12.73
2018-01-10T07:04:14.507Z,13.30
2018-01-10T07:06:43.901Z,14.40
2018-01-10T07:09:12.333Z,12.00
2018-01-10T07:11:40.801Z,9.97
2018-01-10T07:14:09.173Z,13.23
2018-01-10T07:16:37.454Z,12.40
2018-01-10T07:19:05.689Z,10.93
2018-01-10T07:21:34.008Z,10.73
2018-01-10T07:24:03.166Z,11.83
2018-01-10T07:26:32.446Z,12.23
2018-01-10T07:29:01.522Z,12.50
2018-01-10T07:31:29.861Z,9.03
2018-01-10T07:33:58.972Z,9.67
2018-01-10T07:36:27.432Z,9.50
2018-01-10T07:38:56.460Z,11.10
2018-01-10T07:41:27.055Z,13.10
2018-01-10T07:43:56.058Z,11.30
2018-01-10T07:46:24.481Z,11.33
2018-01-10T07:48:53.830Z,12.37
2018-01-10T07:51:22.174Z,10.73
2018-01-10T07:53:50.573Z,11.73
2018-01-10T07:56:19.678Z,11.17
2018-01-10T07:58:49.761Z,12.77
2018-01-10T08:01:18.863Z,15.33
2018-01-10T08:03:48.301Z,12.97
2018-01-10T08:06:17.422Z,12.63
2018-01-10T08:08:46.578Z,10.10
2018-01-10T08:11:15.787Z,9.43
2018-01-10T08:13:44.255Z,7.67
2018-01-10T08:16:12.769Z,9.40
2018-01-10T08:18:42.024Z,9.43
2018-01-10T08:21:10.306Z,10.20
2018-01-10T08:23:38.824Z,11.87
2018-01-10T08:26:07.761Z,8.60
2018-01-10T08:28:36.087Z,10.20
2018-01-10T08:31:04.369Z,11.27
2018-01-10T08:33:32.744Z,11.63
2018-01-10T08:36:02.347Z,12.30
2018-01-10T08:38:32.192Z,9.90
2018-01-10T08:41:01.564Z,15.93
2018-01-10T08:43:29.887Z,7.30
2018-01-10T08:45:58.169Z,8.40
2018-01-10T08:48:26.565Z,9.33
2018-01-10T08:50:54.908Z,7.67
2018-01-10T08:53:23.285Z,6.90
2018-01-10T08:55:51.540Z,9.07
2018-01-10T08:58:19.804Z,7.70
2018-01-10T09:00:48.170Z,20.90
2018-01-10T09:03:17.244Z,12.87
2018-01-10T09:05:45.848Z,7.60
2018-01-10T09:08:14.191Z,13.00
2018-01-10T09:10:42.476Z,7.60
2018-01-10T09:13:10.862Z,5.53
2018-01-10T09:15:39.251Z,6.20
2018-01-10T09:18:07.524Z,12.17
2018-01-10T09:20:37.631Z,7.33
2018-01-10T09:23:07.002Z,5.87
2018-01-10T09:25:35.454Z,5.57
2018-01-10T09:28:03.788Z,3.90
2018-01-10T09:30:32.845Z,7.23
2018-01-10T09:33:02.041Z,6.03
2018-01-10T09:35:45.335Z,8.10
2018-01-10T09:38:13.734Z,8.27
2018-01-10T09:40:42.089Z,4.23
2018-01-10T09:43:10.413Z,6.90
2018-01-10T09:45:39.930Z,5.93
2018-01-10T09:48:09.887Z,4.30
2018-01-10T09:50:39.194Z,7.70
2018-01-10T09:53:08.826Z,6.70
2018-01-10T09:55:48.209Z,7.20
2018-01-10T09:58:17.532Z,12.60
2018-01-10T10:00:45.932Z,23.57
2018-01-10T10:03:14.458Z,13.03
2018-01-10T10:05:42.804Z,10.00
2018-01-10T10:08:13.374Z,22.90
2018-01-10T10:10:42.412Z,10.53
2018-01-10T10:13:10.806Z,11.57
2018-01-10T10:15:39.943Z,7.03
2018-01-10T10:18:08.334Z,13.47
2018-01-10T10:20:37.520Z,9.00
2018-01-10T10:23:06.653Z,7.20
2018-01-10T10:25:35.071Z,9.53
2018-01-10T10:28:04.948Z,11.80
2018-01-10T10:30:33.375Z,12.27
2018-01-10T10:33:01.671Z,7.90
2018-01-10T10:35:37.218Z,18.27
2018-01-10T10:38:11.742Z,7.27
2018-01-10T10:40:43.957Z,12.97
2018-01-10T10:43:12.370Z,8.67
2018-01-10T10:45:40.746Z,8.53
2018-01-10T10:48:09.092Z,8.13
2018-01-10T10:50:37.445Z,17.13
2018-01-10T10:53:05.764Z,11.63
2018-01-10T10:55:34.076Z,11.80
2018-01-10T10:58:02.486Z,9.80
2018-01-10T11:00:30.891Z,7.90
2018-01-10T11:02:59.255Z,5.60
2018-01-10T11:05:28.781Z,8.33
2018-01-10T11:07:59.100Z,16.20
2018-01-10T11:13:20.091Z,13.20
2018-01-10T11:15:49.444Z,12.30
2018-01-10T11:18:17.921Z,15.40
2018-01-10T11:20:46.365Z,27.00
2018-01-10T11:23:15.416Z,11.90
2018-01-10T11:25:43.765Z,19.20
2018-01-10T11:28:24.010Z,11.47
2018-01-10T11:30:58.270Z,7.00
2018-01-10T11:33:26.925Z,9.43
2018-01-10T11:35:56.240Z,11.13
2018-01-10T11:38:31.519Z,6.47
2018-01-10T11:40:59.882Z,17.00
2018-01-10T11:43:41.140Z,13.17
2018-01-10T11:46:10.876Z,8.33
2018-01-10T11:48:40.417Z,9.27
2018-01-10T11:51:10.582Z,10.30
2018-01-10T11:53:40.472Z,6.17
2018-01-10T11:56:09.402Z,10.23
2018-01-10T11:58:37.746Z,11.43
2018-01-10T12:01:06.182Z,9.20
2018-01-10T12:03:34.601Z,10.07
2018-01-10T12:06:13.088Z,15.43
2018-01-10T12:08:41.390Z,16.20
2018-01-10T12:11:09.774Z,6.70
2018-01-10T12:13:38.123Z,10.43
2018-01-10T12:16:06.395Z,20.43
2018-01-10T12:18:35.529Z,18.93
2018-01-10T12:21:04.598Z,15.50
2018-01-10T12:23:32.840Z,8.13
2018-01-10T12:26:01.829Z,8.20
2018-01-10T12:28:30.121Z,5.63
2018-01-10T12:30:58.366Z,16.53
2018-01-10T12:33:27.417Z,12.90
2018-01-10T12:35:55.669Z,8.17
2018-01-10T12:38:23.976Z,14.50
2018-01-10T12:40:52.673Z,24.20
2018-01-10T12:43:21.811Z,8.93
2018-01-10T12:45:50.126Z,4.37
2018-01-10T12:48:19.285Z,13.40
2018-01-10T12:50:48.311Z,18.97
2018-01-10T12:53:16.804Z,6.70
2018-01-10T12:55:45.852Z,19.80
2018-01-10T12:58:14.200Z,23.33
2018-01-10T13:00:42.476Z,8.63
2018-01-10T13:03:11.583Z,13.83
2018-01-10T13:05:40.714Z,8.10
2018-01-10T13:08:09.769Z,16.43
2018-01-10T13:10:38.822Z,25.63
2018-01-10T13:13:07.106Z,15.83
2018-01-10T13:15:35.404Z,6.77
2018-01-10T13:18:04.380Z,9.17
2018-01-10T13:20:32.822Z,7.73
2018-01-10T13:23:01.211Z,8.90
2018-01-10T13:25:29.861Z,12.13
2018-01-10T13:27:58.156Z,10.10
2018-01-10T13:30:26.495Z,9.40
2018-01-10T13:32:56.185Z,13.97
2018-01-10T13:35:25.354Z,6.40
2018-01-10T13:37:53.645Z,16.73
2018-01-10T13:40:21.976Z,6.50
2018-01-10T13:42:51.318Z,8.40
2018-01-10T13:45:20.358Z,10.17
2018-01-10T13:47:48.730Z,8.73
2018-01-10T13:50:17.082Z,10.70
2018-01-10T13:52:45.415Z,17.17
2018-01-10T13:55:13.778Z,14.70
2018-01-10T13:57:42.131Z,21.43
2018-01-10T14:00:11.888Z,18.27
2018-01-10T14:02:40.250Z,22.93
2018-01-10T14:05:08.608Z,10.87
2018-01-10T14:07:36.925Z,7.93
2018-01-10T14:10:06.883Z,19.10
2018-01-10T14:12:36.277Z,11.43
2018-01-10T14:15:04.647Z,6.33
2018-01-10T14:17:32.969Z,18.03
2018-01-10T14:20:01.416Z,14.13
2018-01-10T14:22:30.155Z,13.50
2018-01-10T14:24:58.426Z,16.13
2018-01-10T14:27:28.468Z,14.03
2018-01-10T14:29:56.778Z,6.83
2018-01-10T14:32:25.119Z,12.70
2018-01-10T14:34:53.456Z,85.53
2018-01-10T14:37:21.764Z,27.47
2018-01-10T14:39:51.346Z,13.50
2018-01-10T14:42:20.641Z,8.30
2018-01-10T14:44:48.964Z,5.80
2018-01-10T14:47:18.046Z,10.97
2018-01-10T14:49:46.392Z,7.60
2018-01-10T14:52:14.714Z,10.40
2018-01-10T14:54:43.140Z,11.47
2018-01-10T14:57:11.466Z,8.30
2018-01-10T14:59:39.846Z,15.17
2018-01-10T15:02:18.865Z,13.77
2018-01-10T15:04:48.644Z,7.40
2018-01-10T15:07:18.055Z,8.63
2018-01-10T15:09:46.294Z,6.30
2018-01-10T15:12:15.371Z,8.13
2018-01-10T15:14:44.560Z,13.53
2018-01-10T15:17:15.713Z,10.40
2018-01-10T15:19:44.922Z,13.80
2018-01-10T15:22:13.187Z,24.17
2018-01-10T15:24:41.443Z,10.70
2018-01-10T15:27:09.851Z,7.93
2018-01-10T15:29:39.341Z,13.23
2018-01-10T15:32:08.190Z,10.20
2018-01-10T15:34:38.039Z,10.80
2018-01-10T15:37:06.370Z,9.00
2018-01-10T15:39:35.428Z,18.90
2018-01-10T15:42:06.203Z,11.87
2018-01-10T15:44:34.612Z,10.60
2018-01-10T15:47:03.694Z,10.97
2018-01-10T15:49:32.134Z,31.40
2018-01-10T15:52:00.636Z,11.50
2018-01-10T15:54:29.890Z,16.10
2018-01-10T15:56:58.652Z,9.67
2018-01-10T15:59:27.206Z,12.30
2018-01-10T16:01:55.505Z,8.33
2018-01-10T16:04:24.582Z,8.20
2018-01-10T16:06:53.645Z,14.73
2018-01-10T16:09:22.175Z,7.07
2018-01-10T16:11:50.661Z,19.17
2018-01-10T16:14:19.903Z,10.70
2018-01-10T16:16:48.245Z,14.80
2018-01-10T16:19:17.298Z,11.87
2018-01-10T16:21:46.649Z,15.23
2018-01-10T16:24:15.081Z,19.33
2018-01-10T16:26:43.453Z,20.87
2018-01-10T16:29:12.560Z,12.20
2018-01-10T16:31:43.176Z,22.80
2018-01-10T16:34:11.564Z,22.33
2018-01-10T16:36:42.020Z,13.10
2018-01-10T16:39:10.333Z,11.43
2018-01-10T16:41:38.920Z,22.83
2018-01-10T16:44:07.286Z,11.10
2018-01-10T16:46:35.669Z,17.47
2018-01-10T16:49:04.026Z,35.77
2018-01-10T16:51:32.423Z,16.40
2018-01-10T16:54:01.505Z,18.80
2018-01-10T16:56:29.865Z,18.03
2018-01-10T16:58:59.467Z,21.23
2018-01-10T17:01:29.842Z,16.77
2018-01-10T17:03:59.737Z,16.57
2018-01-10T17:06:28.007Z,17.90
2018-01-10T17:08:57.056Z,10.77
2018-01-10T17:11:25.399Z,15.73
2018-01-10T17:13:54.516Z,16.00
2018-01-10T17:16:22.858Z,18.23
2018-01-10T17:18:51.268Z,21.30
2018-01-10T17:21:20.368Z,20.87
2018-01-10T17:23:48.698Z,33.67
2018-01-10T17:26:17.871Z,13.63
2018-01-10T17:28:47.083Z,14.30
2018-01-10T17:31:16.165Z,18.90
2018-01-10T17:33:45.552Z,20.13
2018-01-10T17:36:13.888Z,24.40
2018-01-10T17:38:42.396Z,32.60
2018-01-10T17:41:11.627Z,14.33
2018-01-10T17:43:40.850Z,15.03
2018-01-10T17:46:09.913Z,24.10
2018-01-10T17:48:38.252Z,30.17
2018-01-10T17:51:07.944Z,20.30
2018-01-10T17:53:43.202Z,25.63
2018-01-10T17:56:12.332Z,18.90
2018-01-10T17:58:40.760Z,21.00
2018-01-10T18:01:09.860Z,14.10
2018-01-10T18:03:38.318Z,19.03
2018-01-10T18:06:06.863Z,23.33
2018-01-10T18:08:35.234Z,16.73
2018-01-10T18:11:03.542Z,25.30
2018-01-10T18:13:31.932Z,18.80
2018-01-10T18:16:01.150Z,12.50
2018-01-10T18:18:29.539Z,21.13
2018-01-10T18:20:57.903Z,14.03
2018-01-10T18:23:27.985Z,20.00
2018-01-10T18:25:56.302Z,18.50
2018-01-10T18:28:24.727Z,21.30
2018-01-10T18:30:53.131Z,32.13
2018-01-10T18:33:22.633Z,30.40
2018-01-10T18:35:52.055Z,18.17
2018-01-10T18:38:22.257Z,15.83
2018-01-10T18:40:50.739Z,28.57
2018-01-10T18:43:19.935Z,19.20
2018-01-10T18:45:48.359Z,24.50
2018-01-10T18:48:17.511Z,26.27
2018-01-10T18:50:46.173Z,31.40
2018-01-10T18:53:15.275Z,15.50
2018-01-10T18:55:43.747Z,22.10
2018-01-10T18:58:12.202Z,16.40
2018-01-10T19:00:40.583Z,22.33
2018-01-10T19:03:10.620Z,33.60
2018-01-10T19:05:39.262Z,20.97
2018-01-10T19:08:07.917Z,30.30
2018-01-10T19:10:41.578Z,19.97
2018-01-10T19:13:09.863Z,17.53
2018-01-10T19:15:38.244Z,18.43
2018-01-10T19:18:08.266Z,13.37
2018-01-10T19:20:52.566Z,21.40
2018-01-10T19:23:22.327Z,23.07
2018-01-10T19:25:51.026Z,21.37
2018-01-10T19:28:22.720Z,27.27
2018-01-10T19:30:51.135Z,49.40
2018-01-10T19:33:19.728Z,32.33
2018-01-10T19:35:48.845Z,21.87
2018-01-10T19:38:18.095Z,29.87
2018-01-10T19:40:46.619Z,34.20
2018-01-10T19:43:15.105Z,35.53
2018-01-10T19:45:44.277Z,34.17
2018-01-10T19:48:12.984Z,28.33
2018-01-10T19:50:44.149Z,27.80
2018-01-10T19:53:13.518Z,32.80
2018-01-10T19:55:42.073Z,28.80
2018-01-10T19:58:11.189Z,30.53
2018-01-10T20:00:39.591Z,29.90
2018-01-10T20:03:08.264Z,26.90
2018-01-10T20:05:37.463Z,24.43
2018-01-10T20:08:06.005Z,33.37
2018-01-10T20:10:34.713Z,24.20
2018-01-10T20:13:04.110Z,35.67
2018-01-10T20:15:32.586Z,35.60
2018-01-10T20:18:01.389Z,38.83
2018-01-10T20:20:29.790Z,24.70
2018-01-10T20:23:01.547Z,23.07
2018-01-10T20:25:40.911Z,25.77
2018-01-10T20:28:10.488Z,21.53
2018-01-10T20:30:38.878Z,25.63
2018-01-10T20:33:07.227Z,20.00
2018-01-10T20:35:36.386Z,22.07
2018-01-10T20:38:04.799Z,17.80
2018-01-10T20:40:33.300Z,33.43
2018-01-10T20:43:02.592Z,25.20
2018-01-10T20:45:31.056Z,23.93
2018-01-10T20:48:00.562Z,21.33
2018-01-10T20:50:29.829Z,26.30
2018-01-10T20:52:58.322Z,21.67
2018-01-10T20:55:26.922Z,19.80
2018-01-10T20:57:55.218Z,26.63
2018-01-10T21:00:23.600Z,18.87
2018-01-10T21:02:53.140Z,20.57
2018-01-10T21:05:21.546Z,19.50
2018-01-10T21:07:49.954Z,21.50
2018-01-10T21:10:19.045Z,37.07
2018-01-10T21:12:47.406Z,26.13
2018-01-10T21:15:15.835Z,24.50
2018-01-10T21:17:45.283Z,27.97
2018-01-10T21:20:13.682Z,22.77
2018-01-10T21:22:42.994Z,23.00
2018-01-10T21:25:11.355Z,37.77
2018-01-10T21:27:39.932Z,30.13
2018-01-10T21:30:09.529Z,26.70
2018-01-10T21:32:39.483Z,28.10
2018-01-10T21:35:08.683Z,29.37
2018-01-10T21:37:38.578Z,19.00
2018-01-10T21:40:07.046Z,32.73
2018-01-10T21:42:46.410Z,32.20
2018-01-10T21:45:15.601Z,25.20
2018-01-10T21:47:45.796Z,29.03
2018-01-10T21:50:14.193Z,31.67
2018-01-10T21:52:43.712Z,31.67
2018-01-10T21:55:11.984Z,22.63
2018-01-10T21:57:40.333Z,33.77
2018-01-10T22:00:08.856Z,43.90
2018-01-10T22:02:39.159Z,39.23
2018-01-10T22:05:07.500Z,45.63
2018-01-10T22:07:35.780Z,35.73
2018-01-10T22:10:05.120Z,31.80
2018-01-10T22:12:34.383Z,26.43
2018-01-10T22:15:03.524Z,27.30
2018-01-10T22:17:32.823Z,35.17
2018-01-10T22:20:01.165Z,25.07
2018-01-10T22:25:08.051Z,25.77
2018-01-10T22:27:38.133Z,26.47
2018-01-10T22:30:07.375Z,31.07
2018-01-10T22:32:36.514Z,33.43
2018-01-10T22:35:19.963Z,22.43
2018-01-10T22:37:50.442Z,22.23
2018-01-10T22:40:19.521Z,25.37
2018-01-10T22:42:48.058Z,22.87
2018-01-10T22:45:17.849Z,29.13
2018-01-10T22:47:47.306Z,24.10
2018-01-10T22:50:15.713Z,28.60
2018-01-10T22:52:45.101Z,31.63
2018-01-10T22:55:14.915Z,24.53
2018-01-10T22:57:44.095Z,24.10
2018-01-10T23:00:12.563Z,44.53
2018-01-10T23:02:43.207Z,36.57
2018-01-10T23:05:13.096Z,23.83
2018-01-10T23:07:41.606Z,27.73
2018-01-10T23:10:10.849Z,26.30
2018-01-10T23:12:39.158Z,24.37
2018-01-10T23:15:07.468Z,26.57
2018-01-10T23:17:37.068Z,29.83
2018-01-10T23:20:16.267Z,23.47
2018-01-10T23:22:45.382Z,29.60
2018-01-10T23:25:14.584Z,19.70
2018-01-10T23:27:42.934Z,34.00
2018-01-10T23:30:12.787Z,20.70
2018-01-10T23:32:42.162Z,22.73
2018-01-10T23:35:12.131Z,29.60
2018-01-10T23:37:41.076Z,27.13
2018-01-10T23:40:11.174Z,19.83
2018-01-10T23:42:39.539Z,27.10
2018-01-10T23:45:09.907Z,21.70
2018-01-10T23:47:38.206Z,31.03
2018-01-10T23:50:07.358Z,31.43
2018-01-10T23:52:35.764Z,24.70
2018-01-10T23:55:04.089Z,30.00
2018-01-10T23:57:34.694Z,26.60
